sensor_id;sensor_type;location;lat;lon;timestamp;pressure;altitude;pressure_sealevel;temperature;humidity
38530;BME280;24301;54.332;48.386;2023-07-16T00:00:38;97808.31;;;16.80;81.07
38530;BME280;24301;54.332;48.386;2023-07-16T00:03:04;97822.59;;;16.77;80.86
38530;BME280;24301;54.332;48.386;2023-07-16T00:05:30;97814.81;;;16.74;80.75
38530;BME280;24301;54.332;48.386;2023-07-16T00:07:56;97828.84;;;16.76;80.47
38530;BME280;24301;54.332;48.386;2023-07-16T00:10:22;97835.16;;;16.74;80.33
38530;BME280;24301;54.332;48.386;2023-07-16T00:12:47;97824.16;;;16.65;81.09
38530;BME280;24301;54.332;48.386;2023-07-16T00:15:13;97831.59;;;16.59;81.33
38530;BME280;24301;54.332;48.386;2023-07-16T00:17:39;97831.69;;;16.57;81.62
38530;BME280;24301;54.332;48.386;2023-07-16T00:20:05;97831.69;;;16.57;81.70
38530;BME280;24301;54.332;48.386;2023-07-16T00:22:31;97819.72;;;16.50;82.04
38530;BME280;24301;54.332;48.386;2023-07-16T00:24:57;97822.47;;;16.48;81.68
38530;BME280;24301;54.332;48.386;2023-07-16T00:27:23;97828.97;;;16.43;82.15
38530;BME280;24301;54.332;48.386;2023-07-16T00:29:49;97824.59;;;16.42;82.56
38530;BME280;24301;54.332;48.386;2023-07-16T00:32:14;97844.88;;;16.43;82.55
38530;BME280;24301;54.332;48.386;2023-07-16T00:34:40;97822.91;;;16.41;82.27
38530;BME280;24301;54.332;48.386;2023-07-16T00:37:07;97843.00;;;16.45;82.29
38530;BME280;24301;54.332;48.386;2023-07-16T00:39:33;97833.84;;;16.50;81.88
38530;BME280;24301;54.332;48.386;2023-07-16T00:41:59;97839.03;;;16.52;81.67
38530;BME280;24301;54.332;48.386;2023-07-16T00:44:25;97836.56;;;16.49;81.79
38530;BME280;24301;54.332;48.386;2023-07-16T00:46:51;97839.22;;;16.49;82.15
38530;BME280;24301;54.332;48.386;2023-07-16T00:49:17;97835.13;;;16.43;82.70
38530;BME280;24301;54.332;48.386;2023-07-16T00:51:43;97850.69;;;16.49;82.47
38530;BME280;24301;54.332;48.386;2023-07-16T00:54:09;97847.53;;;16.43;83.39
38530;BME280;24301;54.332;48.386;2023-07-16T00:56:36;97871.91;;;16.49;83.34
38530;BME280;24301;54.332;48.386;2023-07-16T00:59:03;97859.41;;;16.51;83.15
38530;BME280;24301;54.332;48.386;2023-07-16T01:01:28;97850.94;;;16.45;83.05
38530;BME280;24301;54.332;48.386;2023-07-16T01:03:54;97867.25;;;16.53;82.87
38530;BME280;24301;54.332;48.386;2023-07-16T01:09:03;97854.00;;;16.69;81.84
38530;BME280;24301;54.332;48.386;2023-07-16T01:11:33;97842.03;;;16.62;81.06
38530;BME280;24301;54.332;48.386;2023-07-16T01:14:02;97855.97;;;16.65;81.14
38530;BME280;24301;54.332;48.386;2023-07-16T01:16:28;97862.22;;;16.64;81.16
38530;BME280;24301;54.332;48.386;2023-07-16T01:18:55;97864.94;;;16.63;81.15
38530;BME280;24301;54.332;48.386;2023-07-16T01:21:23;97863.16;;;16.63;81.13
38530;BME280;24301;54.332;48.386;2023-07-16T01:24:21;97873.25;;;16.57;81.48
38530;BME280;24301;54.332;48.386;2023-07-16T01:30:02;97870.72;;;16.55;81.55
38530;BME280;24301;54.332;48.386;2023-07-16T01:32:31;97867.25;;;16.53;81.17
38530;BME280;24301;54.332;48.386;2023-07-16T01:35:02;97862.25;;;16.48;80.92
38530;BME280;24301;54.332;48.386;2023-07-16T01:37:28;97863.44;;;16.43;81.42
38530;BME280;24301;54.332;48.386;2023-07-16T01:39:54;97872.16;;;16.45;81.50
38530;BME280;24301;54.332;48.386;2023-07-16T01:42:20;97874.91;;;16.43;81.22
38530;BME280;24301;54.332;48.386;2023-07-16T01:44:46;97873.28;;;16.41;80.74
38530;BME280;24301;54.332;48.386;2023-07-16T01:47:23;97865.38;;;16.39;80.02
38530;BME280;24301;54.332;48.386;2023-07-16T01:49:55;97876.50;;;16.46;79.77
38530;BME280;24301;54.332;48.386;2023-07-16T01:52:21;97872.84;;;16.48;79.16
38530;BME280;24301;54.332;48.386;2023-07-16T01:54:48;97861.78;;;16.40;79.16
38530;BME280;24301;54.332;48.386;2023-07-16T01:57:14;97871.81;;;16.35;79.04
38530;BME280;24301;54.332;48.386;2023-07-16T01:59:39;97858.03;;;16.28;78.86
38530;BME280;24301;54.332;48.386;2023-07-16T02:02:05;97868.63;;;16.28;78.47
38530;BME280;24301;54.332;48.386;2023-07-16T02:04:31;97873.50;;;16.20;78.59
38530;BME280;24301;54.332;48.386;2023-07-16T02:06:58;97869.31;;;16.16;78.79
38530;BME280;24301;54.332;48.386;2023-07-16T02:09:23;97860.59;;;16.14;78.52
38530;BME280;24301;54.332;48.386;2023-07-16T02:11:51;97854.25;;;16.16;78.56
38530;BME280;24301;54.332;48.386;2023-07-16T02:14:17;97853.25;;;16.19;78.19
38530;BME280;24301;54.332;48.386;2023-07-16T02:16:42;97849.75;;;16.18;77.94
38530;BME280;24301;54.332;48.386;2023-07-16T02:19:08;97856.50;;;16.24;77.65
38530;BME280;24301;54.332;48.386;2023-07-16T02:21:34;97857.53;;;16.21;77.34
38530;BME280;24301;54.332;48.386;2023-07-16T02:24:00;97845.47;;;16.32;77.18
38530;BME280;24301;54.332;48.386;2023-07-16T02:26:26;97857.72;;;16.34;76.78
38530;BME280;24301;54.332;48.386;2023-07-16T02:28:52;97850.34;;;16.40;76.54
38530;BME280;24301;54.332;48.386;2023-07-16T02:31:17;97844.88;;;16.43;75.95
38530;BME280;24301;54.332;48.386;2023-07-16T02:33:43;97858.06;;;16.44;75.40
38530;BME280;24301;54.332;48.386;2023-07-16T02:36:09;97846.59;;;16.44;75.58
38530;BME280;24301;54.332;48.386;2023-07-16T02:38:35;97851.88;;;16.44;75.04
38530;BME280;24301;54.332;48.386;2023-07-16T02:41:01;97837.50;;;16.48;74.78
38530;BME280;24301;54.332;48.386;2023-07-16T02:43:26;97839.72;;;16.56;74.39
38530;BME280;24301;54.332;48.386;2023-07-16T02:45:52;97847.63;;;16.57;73.95
38530;BME280;24301;54.332;48.386;2023-07-16T02:48:18;97838.72;;;16.58;74.29
38530;BME280;24301;54.332;48.386;2023-07-16T02:50:44;97832.78;;;16.69;74.16
38530;BME280;24301;54.332;48.386;2023-07-16T02:53:09;97822.41;;;16.80;73.18
38530;BME280;24301;54.332;48.386;2023-07-16T02:55:35;97826.91;;;16.94;72.84
38530;BME280;24301;54.332;48.386;2023-07-16T02:58:01;97826.88;;;17.11;72.51
38530;BME280;24301;54.332;48.386;2023-07-16T03:00:33;97827.03;;;17.38;71.68
38530;BME280;24301;54.332;48.386;2023-07-16T03:03:00;97813.84;;;17.65;70.39
38530;BME280;24301;54.332;48.386;2023-07-16T03:05:27;97807.50;;;17.83;69.33
38530;BME280;24301;54.332;48.386;2023-07-16T03:07:56;97836.72;;;17.97;69.08
38530;BME280;24301;54.332;48.386;2023-07-16T03:10:22;97829.47;;;18.28;68.10
38530;BME280;24301;54.332;48.386;2023-07-16T03:12:48;97830.59;;;18.38;67.04
38530;BME280;24301;54.332;48.386;2023-07-16T03:15:14;97835.03;;;18.52;66.45
38530;BME280;24301;54.332;48.386;2023-07-16T03:17:40;97828.28;;;18.47;66.01
38530;BME280;24301;54.332;48.386;2023-07-16T03:20:06;97840.13;;;18.56;66.20
38530;BME280;24301;54.332;48.386;2023-07-16T03:22:33;97840.19;;;18.69;65.45
38530;BME280;24301;54.332;48.386;2023-07-16T03:24:59;97837.94;;;18.62;64.27
38530;BME280;24301;54.332;48.386;2023-07-16T03:27:25;97834.09;;;18.39;64.35
38530;BME280;24301;54.332;48.386;2023-07-16T03:29:56;97843.72;;;18.27;64.15
38530;BME280;24301;54.332;48.386;2023-07-16T03:32:22;97842.75;;;18.28;64.12
38530;BME280;24301;54.332;48.386;2023-07-16T03:34:48;97842.34;;;18.07;64.25
38530;BME280;24301;54.332;48.386;2023-07-16T03:37:14;97835.59;;;18.01;64.20
38530;BME280;24301;54.332;48.386;2023-07-16T03:39:42;97845.47;;;18.14;64.37
38530;BME280;24301;54.332;48.386;2023-07-16T03:42:08;97844.66;;;18.26;63.75
38530;BME280;24301;54.332;48.386;2023-07-16T03:44:34;97836.19;;;18.34;63.70
38530;BME280;24301;54.332;48.386;2023-07-16T03:47:02;97828.25;;;18.61;63.06
38530;BME280;24301;54.332;48.386;2023-07-16T03:49:28;97839.34;;;18.81;62.32
38530;BME280;24301;54.332;48.386;2023-07-16T03:51:56;97841.63;;;18.60;62.43
38530;BME280;24301;54.332;48.386;2023-07-16T03:54:22;97834.00;;;18.68;62.26
38530;BME280;24301;54.332;48.386;2023-07-16T03:56:48;97829.41;;;18.57;62.44
38530;BME280;24301;54.332;48.386;2023-07-16T03:59:14;97833.81;;;18.71;62.09
38530;BME280;24301;54.332;48.386;2023-07-16T04:01:39;97824.88;;;19.00;61.27
38530;BME280;24301;54.332;48.386;2023-07-16T04:04:05;97842.94;;;19.48;60.10
38530;BME280;24301;54.332;48.386;2023-07-16T04:06:31;97841.00;;;20.15;59.19
38530;BME280;24301;54.332;48.386;2023-07-16T04:08:57;97831.50;;;20.96;57.26
38530;BME280;24301;54.332;48.386;2023-07-16T04:11:23;97805.81;;;21.07;54.50
38530;BME280;24301;54.332;48.386;2023-07-16T04:13:48;97830.31;;;21.59;53.72
38530;BME280;24301;54.332;48.386;2023-07-16T04:16:14;97816.81;;;22.41;50.12
38530;BME280;24301;54.332;48.386;2023-07-16T04:18:40;97815.56;;;22.56;49.54
38530;BME280;24301;54.332;48.386;2023-07-16T04:21:06;97827.38;;;23.19;48.78
38530;BME280;24301;54.332;48.386;2023-07-16T04:23:31;97828.97;;;24.36;47.07
38530;BME280;24301;54.332;48.386;2023-07-16T04:25:57;97816.75;;;25.22;44.93
38530;BME280;24301;54.332;48.386;2023-07-16T04:28:23;97821.56;;;25.18;42.44
38530;BME280;24301;54.332;48.386;2023-07-16T04:30:49;97801.09;;;24.78;42.97
38530;BME280;24301;54.332;48.386;2023-07-16T04:33:14;97819.59;;;24.81;43.07
38530;BME280;24301;54.332;48.386;2023-07-16T04:35:40;97823.22;;;25.59;42.50
38530;BME280;24301;54.332;48.386;2023-07-16T04:38:06;97818.69;;;25.97;41.52
38530;BME280;24301;54.332;48.386;2023-07-16T04:40:33;97824.00;;;26.45;40.87
38530;BME280;24301;54.332;48.386;2023-07-16T04:42:59;97823.16;;;26.16;41.05
38530;BME280;24301;54.332;48.386;2023-07-16T04:45:25;97837.94;;;26.76;39.94
38530;BME280;24301;54.332;48.386;2023-07-16T04:47:51;97822.78;;;27.30;38.37
38530;BME280;24301;54.332;48.386;2023-07-16T04:50:16;97819.56;;;26.72;38.65
38530;BME280;24301;54.332;48.386;2023-07-16T04:52:42;97826.41;;;26.20;39.31
38530;BME280;24301;54.332;48.386;2023-07-16T04:55:08;97827.69;;;25.78;40.89
38530;BME280;24301;54.332;48.386;2023-07-16T04:57:36;97855.31;;;26.18;40.17
38530;BME280;24301;54.332;48.386;2023-07-16T05:00:02;97836.72;;;24.90;41.44
38530;BME280;24301;54.332;48.386;2023-07-16T05:02:30;97834.88;;;24.80;42.50
38530;BME280;24301;54.332;48.386;2023-07-16T05:04:56;97829.47;;;25.39;40.90
38530;BME280;24301;54.332;48.386;2023-07-16T05:07:21;97848.78;;;26.10;39.51
38530;BME280;24301;54.332;48.386;2023-07-16T05:09:49;97838.44;;;26.16;39.48
38530;BME280;24301;54.332;48.386;2023-07-16T05:12:15;97824.16;;;26.61;38.32
38530;BME280;24301;54.332;48.386;2023-07-16T05:14:47;97822.50;;;27.15;37.00
38530;BME280;24301;54.332;48.386;2023-07-16T05:17:14;97828.59;;;26.99;37.42
38530;BME280;24301;54.332;48.386;2023-07-16T05:19:40;97843.88;;;26.06;38.83
38530;BME280;24301;54.332;48.386;2023-07-16T05:22:06;97839.09;;;26.56;38.64
38530;BME280;24301;54.332;48.386;2023-07-16T05:24:32;97834.63;;;26.08;38.78
38530;BME280;24301;54.332;48.386;2023-07-16T05:26:58;97836.19;;;25.73;39.87
38530;BME280;24301;54.332;48.386;2023-07-16T05:29:24;97835.13;;;26.32;39.13
38530;BME280;24301;54.332;48.386;2023-07-16T05:31:50;97846.81;;;27.41;37.62
38530;BME280;24301;54.332;48.386;2023-07-16T05:34:19;97842.13;;;27.96;36.81
38530;BME280;24301;54.332;48.386;2023-07-16T05:36:45;97836.63;;;28.57;35.92
38530;BME280;24301;54.332;48.386;2023-07-16T05:39:10;97831.91;;;28.51;34.70
38530;BME280;24301;54.332;48.386;2023-07-16T05:41:39;97854.25;;;28.27;35.06
38530;BME280;24301;54.332;48.386;2023-07-16T05:44:06;97843.06;;;28.56;34.73
38530;BME280;24301;54.332;48.386;2023-07-16T05:46:33;97845.09;;;28.62;34.27
38530;BME280;24301;54.332;48.386;2023-07-16T05:49:02;97848.06;;;28.94;33.80
38530;BME280;24301;54.332;48.386;2023-07-16T05:51:29;97842.13;;;28.82;34.15
38530;BME280;24301;54.332;48.386;2023-07-16T05:53:55;97833.69;;;28.85;33.67
38530;BME280;24301;54.332;48.386;2023-07-16T05:56:21;97841.63;;;28.87;33.93
38530;BME280;24301;54.332;48.386;2023-07-16T05:58:47;97846.41;;;29.43;32.94
38530;BME280;24301;54.332;48.386;2023-07-16T06:01:13;97839.13;;;29.02;33.32
38530;BME280;24301;54.332;48.386;2023-07-16T06:03:39;97845.41;;;28.59;34.17
38530;BME280;24301;54.332;48.386;2023-07-16T06:06:05;97848.84;;;28.78;33.97
38530;BME280;24301;54.332;48.386;2023-07-16T06:08:31;97846.91;;;28.53;34.06
38530;BME280;24301;54.332;48.386;2023-07-16T06:10:56;97849.19;;;27.62;35.38
38530;BME280;24301;54.332;48.386;2023-07-16T06:13:22;97850.56;;;28.79;33.99
38530;BME280;24301;54.332;48.386;2023-07-16T06:15:48;97843.31;;;29.71;32.56
38530;BME280;24301;54.332;48.386;2023-07-16T06:18:14;97831.06;;;30.00;31.93
38530;BME280;24301;54.332;48.386;2023-07-16T06:20:43;97856.69;;;29.64;31.37
38530;BME280;24301;54.332;48.386;2023-07-16T06:23:09;97850.97;;;29.42;32.79
38530;BME280;24301;54.332;48.386;2023-07-16T06:25:36;97848.94;;;29.52;32.30
38530;BME280;24301;54.332;48.386;2023-07-16T06:28:03;97859.59;;;30.19;31.79
38530;BME280;24301;54.332;48.386;2023-07-16T06:30:29;97846.06;;;30.59;30.90
38530;BME280;24301;54.332;48.386;2023-07-16T06:32:58;97837.06;;;30.27;31.29
38530;BME280;24301;54.332;48.386;2023-07-16T06:35:24;97853.22;;;30.11;30.95
38530;BME280;24301;54.332;48.386;2023-07-16T06:37:49;97845.78;;;30.45;30.63
38530;BME280;24301;54.332;48.386;2023-07-16T06:40:15;97838.38;;;29.82;31.42
38530;BME280;24301;54.332;48.386;2023-07-16T06:42:41;97839.31;;;30.54;31.02
38530;BME280;24301;54.332;48.386;2023-07-16T06:45:08;97837.25;;;31.20;30.43
38530;BME280;24301;54.332;48.386;2023-07-16T06:47:34;97823.28;;;31.46;29.32
38530;BME280;24301;54.332;48.386;2023-07-16T06:50:00;97833.34;;;30.67;30.43
38530;BME280;24301;54.332;48.386;2023-07-16T06:52:25;97836.44;;;29.51;31.08
38530;BME280;24301;54.332;48.386;2023-07-16T06:54:56;97845.69;;;27.25;34.99
38530;BME280;24301;54.332;48.386;2023-07-16T06:57:23;97860.69;;;27.28;35.20
38530;BME280;24301;54.332;48.386;2023-07-16T06:59:49;97851.63;;;26.19;36.89
38530;BME280;24301;54.332;48.386;2023-07-16T07:02:18;97855.47;;;25.68;38.29
38530;BME280;24301;54.332;48.386;2023-07-16T07:04:44;97858.81;;;24.62;39.88
38530;BME280;24301;54.332;48.386;2023-07-16T07:07:10;97866.00;;;24.01;41.26
38530;BME280;24301;54.332;48.386;2023-07-16T07:09:36;97860.16;;;23.65;42.25
38530;BME280;24301;54.332;48.386;2023-07-16T07:12:02;97865.97;;;23.28;42.89
38530;BME280;24301;54.332;48.386;2023-07-16T07:14:28;97862.78;;;23.22;43.25
38530;BME280;24301;54.332;48.386;2023-07-16T07:16:54;97852.97;;;25.47;39.78
38530;BME280;24301;54.332;48.386;2023-07-16T07:19:19;97851.13;;;27.34;36.06
38530;BME280;24301;54.332;48.386;2023-07-16T07:21:45;97863.72;;;28.74;34.01
38530;BME280;24301;54.332;48.386;2023-07-16T07:24:12;97856.25;;;28.16;34.19
38530;BME280;24301;54.332;48.386;2023-07-16T07:26:37;97839.00;;;26.93;35.27
38530;BME280;24301;54.332;48.386;2023-07-16T07:29:03;97849.13;;;25.50;37.56
38530;BME280;24301;54.332;48.386;2023-07-16T07:31:29;97847.47;;;25.87;38.40
38530;BME280;24301;54.332;48.386;2023-07-16T07:33:55;97853.94;;;25.27;38.84
38530;BME280;24301;54.332;48.386;2023-07-16T07:36:23;97861.03;;;24.37;40.09
38530;BME280;24301;54.332;48.386;2023-07-16T07:38:48;97857.66;;;23.31;41.71
38530;BME280;24301;54.332;48.386;2023-07-16T07:41:14;97851.38;;;22.88;43.01
38530;BME280;24301;54.332;48.386;2023-07-16T07:43:40;97855.28;;;22.17;45.88
38530;BME280;24301;54.332;48.386;2023-07-16T07:46:06;97865.38;;;22.02;46.53
38530;BME280;24301;54.332;48.386;2023-07-16T07:48:32;97890.09;;;21.58;48.54
38530;BME280;24301;54.332;48.386;2023-07-16T07:50:57;97872.00;;;21.15;49.50
38530;BME280;24301;54.332;48.386;2023-07-16T07:53:23;97868.84;;;20.85;50.36
38530;BME280;24301;54.332;48.386;2023-07-16T07:55:54;97866.31;;;20.95;50.58
38530;BME280;24301;54.332;48.386;2023-07-16T07:58:19;97869.22;;;21.16;50.40
38530;BME280;24301;54.332;48.386;2023-07-16T08:00:45;97881.84;;;21.14;49.99
38530;BME280;24301;54.332;48.386;2023-07-16T08:03:11;97862.41;;;20.88;50.97
38530;BME280;24301;54.332;48.386;2023-07-16T08:05:37;97860.41;;;21.03;50.56
38530;BME280;24301;54.332;48.386;2023-07-16T08:08:03;97883.22;;;20.95;49.54
38530;BME280;24301;54.332;48.386;2023-07-16T08:10:29;97860.84;;;21.21;49.56
38530;BME280;24301;54.332;48.386;2023-07-16T08:12:55;97875.84;;;21.35;49.83
38530;BME280;24301;54.332;48.386;2023-07-16T08:15:21;97854.56;;;21.33;49.69
38530;BME280;24301;54.332;48.386;2023-07-16T08:17:46;97856.25;;;20.87;50.68
38530;BME280;24301;54.332;48.386;2023-07-16T08:20:13;97870.53;;;20.49;51.67
38530;BME280;24301;54.332;48.386;2023-07-16T08:22:39;97862.53;;;20.24;51.75
38530;BME280;24301;54.332;48.386;2023-07-16T08:25:06;97865.19;;;20.24;51.84
38530;BME280;24301;54.332;48.386;2023-07-16T08:27:32;97873.53;;;20.44;51.87
38530;BME280;24301;54.332;48.386;2023-07-16T08:30:00;97867.59;;;20.41;52.35
38530;BME280;24301;54.332;48.386;2023-07-16T08:32:27;97882.50;;;20.43;51.79
38530;BME280;24301;54.332;48.386;2023-07-16T08:34:52;97867.38;;;20.44;51.66
38530;BME280;24301;54.332;48.386;2023-07-16T08:37:18;97863.69;;;20.58;51.24
38530;BME280;24301;54.332;48.386;2023-07-16T08:39:44;97882.19;;;20.48;51.55
38530;BME280;24301;54.332;48.386;2023-07-16T08:42:10;97860.56;;;20.39;51.33
38530;BME280;24301;54.332;48.386;2023-07-16T08:44:41;97879.59;;;20.09;52.65
38530;BME280;24301;54.332;48.386;2023-07-16T08:47:07;97873.94;;;19.88;52.81
38530;BME280;24301;54.332;48.386;2023-07-16T08:49:34;97875.88;;;19.73;52.90
38530;BME280;24301;54.332;48.386;2023-07-16T08:52:02;97862.88;;;19.68;53.03
38530;BME280;24301;54.332;48.386;2023-07-16T08:54:28;97879.38;;;19.73;53.45
38530;BME280;24301;54.332;48.386;2023-07-16T08:56:55;97870.75;;;19.70;53.74
38530;BME280;24301;54.332;48.386;2023-07-16T08:59:22;97869.91;;;19.69;53.86
38530;BME280;24301;54.332;48.386;2023-07-16T09:01:48;97881.63;;;19.79;53.80
38530;BME280;24301;54.332;48.386;2023-07-16T09:04:15;97875.44;;;19.79;53.43
38530;BME280;24301;54.332;48.386;2023-07-16T09:06:42;97877.97;;;19.67;53.80
38530;BME280;24301;54.332;48.386;2023-07-16T09:09:08;97872.13;;;19.62;54.18
38530;BME280;24301;54.332;48.386;2023-07-16T09:11:34;97871.81;;;19.67;53.89
38530;BME280;24301;54.332;48.386;2023-07-16T09:14:03;97877.25;;;19.65;55.52
38530;BME280;24301;54.332;48.386;2023-07-16T09:16:33;97878.53;;;19.47;56.32
38530;BME280;24301;54.332;48.386;2023-07-16T09:19:06;97882.47;;;19.67;54.89
38530;BME280;24301;54.332;48.386;2023-07-16T09:21:36;97878.72;;;19.70;53.95
38530;BME280;24301;54.332;48.386;2023-07-16T09:24:07;97880.44;;;19.58;53.73
38530;BME280;24301;54.332;48.386;2023-07-16T09:26:33;97879.16;;;19.63;53.61
38530;BME280;24301;54.332;48.386;2023-07-16T09:28:59;97889.38;;;19.70;53.62
38530;BME280;24301;54.332;48.386;2023-07-16T09:31:25;97883.66;;;19.63;54.84
38530;BME280;24301;54.332;48.386;2023-07-16T09:33:51;97883.66;;;19.63;55.18
38530;BME280;24301;54.332;48.386;2023-07-16T09:36:25;97893.00;;;19.68;54.85
38530;BME280;24301;54.332;48.386;2023-07-16T09:38:53;97886.19;;;19.51;53.96
38530;BME280;24301;54.332;48.386;2023-07-16T09:41:20;97870.41;;;19.35;54.12
38530;BME280;24301;54.332;48.386;2023-07-16T09:43:47;97874.44;;;19.28;54.86
38530;BME280;24301;54.332;48.386;2023-07-16T09:46:12;97888.78;;;19.13;55.53
38530;BME280;24301;54.332;48.386;2023-07-16T09:48:38;97880.75;;;19.00;56.08
38530;BME280;24301;54.332;48.386;2023-07-16T09:51:07;97894.25;;;18.96;56.38
38530;BME280;24301;54.332;48.386;2023-07-16T09:53:34;97888.25;;;19.07;56.16
38530;BME280;24301;54.332;48.386;2023-07-16T09:56:03;97899.34;;;19.14;56.28
38530;BME280;24301;54.332;48.386;2023-07-16T09:58:30;97891.25;;;19.29;56.13
38530;BME280;24301;54.332;48.386;2023-07-16T10:00:56;97897.81;;;19.50;55.77
38530;BME280;24301;54.332;48.386;2023-07-16T10:03:22;97904.97;;;19.89;54.99
38530;BME280;24301;54.332;48.386;2023-07-16T10:05:48;97887.28;;;20.14;54.11
38530;BME280;24301;54.332;48.386;2023-07-16T10:08:18;97897.94;;;20.64;53.29
38530;BME280;24301;54.332;48.386;2023-07-16T10:10:48;97881.97;;;20.88;52.42
38530;BME280;24301;54.332;48.386;2023-07-16T10:13:15;97891.13;;;20.97;52.11
38530;BME280;24301;54.332;48.386;2023-07-16T10:15:55;97882.28;;;21.08;51.61
38530;BME280;24301;54.332;48.386;2023-07-16T10:18:29;97900.22;;;21.06;52.25
38530;BME280;24301;54.332;48.386;2023-07-16T10:21:06;97901.28;;;20.79;52.92
38530;BME280;24301;54.332;48.386;2023-07-16T10:23:41;97905.19;;;20.62;53.50
38530;BME280;24301;54.332;48.386;2023-07-16T10:26:11;97897.09;;;20.63;53.45
38530;BME280;24301;54.332;48.386;2023-07-16T10:28:38;97896.84;;;20.29;53.95
38530;BME280;24301;54.332;48.386;2023-07-16T10:31:04;97906.81;;;20.01;54.54
38530;BME280;24301;54.332;48.386;2023-07-16T10:33:31;97904.56;;;19.95;54.87
38530;BME280;24301;54.332;48.386;2023-07-16T10:35:57;97902.88;;;19.94;54.96
38530;BME280;24301;54.332;48.386;2023-07-16T10:38:27;97904.13;;;20.01;54.60
38530;BME280;24301;54.332;48.386;2023-07-16T10:40:53;97913.50;;;20.20;54.30
38530;BME280;24301;54.332;48.386;2023-07-16T10:43:19;97915.84;;;20.37;54.00
38530;BME280;24301;54.332;48.386;2023-07-16T10:45:46;97909.38;;;20.53;53.54
38530;BME280;24301;54.332;48.386;2023-07-16T10:48:13;97913.63;;;20.68;53.43
38530;BME280;24301;54.332;48.386;2023-07-16T10:50:41;97908.91;;;20.72;52.82
38530;BME280;24301;54.332;48.386;2023-07-16T10:53:07;97919.59;;;20.72;52.80
38530;BME280;24301;54.332;48.386;2023-07-16T10:55:33;97922.19;;;20.48;52.58
38530;BME280;24301;54.332;48.386;2023-07-16T10:58:05;97923.66;;;20.15;52.92
38530;BME280;24301;54.332;48.386;2023-07-16T11:00:36;97913.22;;;20.12;53.22
38530;BME280;24301;54.332;48.386;2023-07-16T11:03:03;97927.38;;;20.12;53.46
38530;BME280;24301;54.332;48.386;2023-07-16T11:05:29;97919.50;;;20.10;53.07
38530;BME280;24301;54.332;48.386;2023-07-16T11:07:54;97915.44;;;20.18;53.05
38530;BME280;24301;54.332;48.386;2023-07-16T11:10:20;97917.97;;;20.32;52.83
38530;BME280;24301;54.332;48.386;2023-07-16T11:12:51;97916.66;;;20.38;52.55
38530;BME280;24301;54.332;48.386;2023-07-16T11:15:18;97909.78;;;20.22;52.32
38530;BME280;24301;54.332;48.386;2023-07-16T11:17:48;97915.66;;;20.02;53.17
38530;BME280;24301;54.332;48.386;2023-07-16T11:20:16;97915.50;;;19.77;54.10
38530;BME280;24301;54.332;48.386;2023-07-16T11:22:46;97923.50;;;19.51;55.21
38530;BME280;24301;54.332;48.386;2023-07-16T11:25:13;97935.59;;;19.30;56.73
38530;BME280;24301;54.332;48.386;2023-07-16T11:27:41;97928.22;;;19.20;57.35
38530;BME280;24301;54.332;48.386;2023-07-16T11:30:08;97940.25;;;19.13;57.49
38530;BME280;24301;54.332;48.386;2023-07-16T11:32:34;97933.84;;;19.16;58.07
38530;BME280;24301;54.332;48.386;2023-07-16T11:35:11;97933.53;;;19.20;58.02
38530;BME280;24301;54.332;48.386;2023-07-16T11:37:41;97942.28;;;19.22;57.96
38530;BME280;24301;54.332;48.386;2023-07-16T11:40:09;97938.97;;;19.19;58.34
38530;BME280;24301;54.332;48.386;2023-07-16T11:42:36;97939.16;;;19.16;58.57
38530;BME280;24301;54.332;48.386;2023-07-16T11:45:03;97937.25;;;19.18;58.73
38530;BME280;24301;54.332;48.386;2023-07-16T11:47:32;97934.00;;;19.27;58.58
38530;BME280;24301;54.332;48.386;2023-07-16T11:50:01;97939.34;;;19.40;58.25
38530;BME280;24301;54.332;48.386;2023-07-16T11:52:29;97937.31;;;19.44;58.09
38530;BME280;24301;54.332;48.386;2023-07-16T11:54:58;97935.16;;;19.23;59.02
38530;BME280;24301;54.332;48.386;2023-07-16T11:57:30;97940.94;;;19.02;59.72
38530;BME280;24301;54.332;48.386;2023-07-16T11:59:56;97952.34;;;18.90;60.30
38530;BME280;24301;54.332;48.386;2023-07-16T12:02:22;97942.72;;;18.60;62.16
38530;BME280;24301;54.332;48.386;2023-07-16T12:04:48;97956.16;;;18.29;64.27
38530;BME280;24301;54.332;48.386;2023-07-16T12:07:14;97953.41;;;18.16;65.41
38530;BME280;24301;54.332;48.386;2023-07-16T12:09:40;97945.41;;;18.16;65.64
38530;BME280;24301;54.332;48.386;2023-07-16T12:12:06;97953.28;;;18.03;66.18
38530;BME280;24301;54.332;48.386;2023-07-16T12:14:32;97954.78;;;17.93;66.85
38530;BME280;24301;54.332;48.386;2023-07-16T12:17:01;97960.09;;;17.93;67.54
38530;BME280;24301;54.332;48.386;2023-07-16T12:19:29;97952.28;;;17.75;68.53
38530;BME280;24301;54.332;48.386;2023-07-16T12:21:55;97944.97;;;17.64;69.52
38530;BME280;24301;54.332;48.386;2023-07-16T12:24:25;97951.28;;;17.47;70.11
38530;BME280;24301;54.332;48.386;2023-07-16T12:26:51;97950.78;;;17.41;71.25
38530;BME280;24301;54.332;48.386;2023-07-16T12:29:16;97946.78;;;17.33;71.21
38530;BME280;24301;54.332;48.386;2023-07-16T12:31:42;97954.66;;;17.35;71.66
38530;BME280;24301;54.332;48.386;2023-07-16T12:34:08;97948.31;;;17.37;71.31
38530;BME280;24301;54.332;48.386;2023-07-16T12:36:34;97951.53;;;17.43;71.21
38530;BME280;24301;54.332;48.386;2023-07-16T12:39:00;97958.13;;;17.51;70.73
38530;BME280;24301;54.332;48.386;2023-07-16T12:41:30;97965.25;;;17.51;71.32
38530;BME280;24301;54.332;48.386;2023-07-16T12:44:03;97953.09;;;17.47;72.35
38530;BME280;24301;54.332;48.386;2023-07-16T12:46:32;97956.00;;;17.42;71.85
38530;BME280;24301;54.332;48.386;2023-07-16T12:49:07;97954.06;;;17.30;73.12
38530;BME280;24301;54.332;48.386;2023-07-16T12:51:33;97944.22;;;17.32;73.13
38530;BME280;24301;54.332;48.386;2023-07-16T12:54:01;97950.50;;;17.45;72.66